ADDS METAR Data INFO
IDs: Format: Raw Decoded Include TAF

Data at: 0259 UTC 21 Jan 2018

KIRK 210255Z AUTO 11005KT 10SM OVC039 06/05 A2991 RMK AO2 SLP136 T00560050 58007
KIRK 210155Z AUTO 12004KT 10SM OVC036 06/06 A2993 RMK AO2 SLP143 T00610056
KIRK 210055Z AUTO 14006KT 10SM OVC031 07/06 A2993 RMK AO2 SLP143 T00670056
KIRK 210050Z AUTO 14006KT 10SM OVC031 07/06 A2993 RMK AO2
KIRK 202355Z AUTO 14007KT 10SM OVC024 07/06 A2992 RMK AO2 SLP140 T00720061 10117 20067 53012
KIRK 202255Z AUTO 17005KT 10SM OVC022 08/07 A2990 RMK AO2 SLP135 T00830067
KIRK 202155Z AUTO 23007KT 10SM OVC024 11/07 A2989 RMK AO2 SLP130 T01060067
KIRK 202055Z AUTO 20007KT 10SM OVC025 11/07 A2988 RMK AO2 SLP126 T01060072 56015
KIRK 201955Z AUTO 22010KT 10SM OVC028 11/07 A2989 RMK AO2 SLP126 T01110072
KIRK 201855Z AUTO 22009KT 10SM FEW020 BKN026 11/07 A2990 RMK AO2 SLP130 T01110072
KIRK 201755Z AUTO 23011KT 10SM BKN017 OVC024 10/07 A2993 RMK AO2 SLP141 T01000067 10106 20022 58002
KIRK 201655Z AUTO 22009KT 10SM BKN021 09/06 A2995 RMK AO2 SLP148 T00890061
KIRK 201555Z AUTO 22008KT 9SM OVC017 07/06 A2994 RMK AO2 SLP146 T00720056
KIRK 201532Z AUTO 23008KT 9SM OVC015 06/05 A2994 RMK AO2 T00610050
KIRK 201455Z AUTO 23007KT 8SM OVC011 06/04 A2993 RMK AO2 SLP145 T00560044 53016
KIRK 201355Z AUTO 22009KT 10SM OVC010 04/03 A2991 RMK AO2 SLP138 T00440033
KIRK 201255Z AUTO 22009KT 10SM OVC012 04/03 A2990 RMK AO2 SLP134 T00390028
KIRK 201227Z AUTO 22008KT 10SM OVC013 03/02 A2989 RMK AO2 T00330022
KIRK 201214Z AUTO 21008KT 10SM BKN015 03/02 A2989 RMK AO2 T00330022
KIRK 201155Z AUTO 21007KT 10SM CLR 02/02 A2989 RMK AO2 SLP130 T00220017 10050 20022 53006
KIRK 201055Z AUTO 21008KT 10SM CLR 03/01 A2988 RMK AO2 SLP127 T00330011
KIRK 200955Z AUTO 22009KT 10SM CLR 04/01 A2987 RMK AO2 SLP124 T00390006
KIRK 200855Z AUTO 22009KT 10SM CLR 04/01 A2987 RMK AO2 SLP122 T00440006 53008
KIRK 200755Z AUTO 23012KT 10SM CLR 05/M01 A2986 RMK AO2 SLP120 T00501006
KIRK 200655Z AUTO 22011KT 10SM CLR 04/M01 A2985 RMK AO2 SLP116 T00441011
KIRK 200555Z AUTO 23010KT 10SM CLR 05/M01 A2985 RMK AO2 SLP115 T00501011 10072 20050 400831011 50012
KIRK 200455Z AUTO 23011KT 10SM CLR 06/M01 A2985 RMK AO2 SLP117 T00561011
KIRK 200355Z AUTO 23009KT 10SM CLR 06/M01 A2984 RMK AO2 SLP113 T00611011
KIRK 200255Z AUTO 22010KT 10SM CLR 07/M01 A2981 RMK AO2 SLP103 T00671011 51006
KIRK 200155Z AUTO 21011KT 10SM CLR 07/M01 A2980 RMK AO2 SLP102 T00671011
KIRK 200055Z AUTO 22013KT 10SM CLR 07/M01 A2980 RMK AO2 SLP101 T00721011
KIRK 192355Z AUTO 21012KT 10SM CLR 07/M01 A2979 RMK AO2 SLP097 T00671011 10083 20050 55003
KIRK 192255Z AUTO 21011KT 10SM CLR 07/M01 A2979 RMK AO2 SLP097 T00721011
KIRK 192155Z AUTO 21014G21KT 10SM CLR 08/M01 A2980 RMK AO2 SLP099 T00831011
KIRK 192055Z AUTO 21017KT 10SM CLR 08/M02 A2980 RMK AO2 SLP099 T00831017 56023
KIRK 191955Z AUTO 21016G23KT 10SM CLR 07/M02 A2981 RMK AO2 SLP103 T00721022
KIRK 191855Z AUTO 20013KT 10SM CLR 06/M03 A2984 RMK AO2 SLP114 T00611028
KIRK 191755Z AUTO 20012KT 10SM CLR 05/M03 A2987 RMK AO2 PRESFR SLP124 T00501033 10050 21011 58018
KIRK 191655Z AUTO 22011KT 10SM CLR 03/M04 A2992 RMK AO2 SLP143 T00331044
KIRK 191555Z AUTO 21015KT 10SM CLR 02/M05 A2991 RMK AO2 SLP140 T00221050